Time;durP1;ratioP1;P1;durP2;ratioP2;P2;SDS_P1;SDS_P2;PMS_P1;PMS_P2;Temp;Humidity;BMP_temperature;BMP_pressure;BME280_temperature;BME280_humidity;BME280_pressure;Samples;Min_cycle;Max_cycle;Signal;HPM_P1;HPM_P2
2022/01/11 00:00:35;;;;;;;6.45;2.92;;;-1.70;99.90;;;;;;4945333;28;20070;-65
2022/01/11 00:03:02;;;;;;;4.55;2.50;;;-1.80;99.90;;;;;;4926049;29;20031;-64
2022/01/11 00:05:38;;;;;;;5.65;3.17;;;-1.90;99.90;;;;;;4949468;28;20175;-64
2022/01/11 00:08:07;;;;;;;10.25;2.58;;;-1.80;99.90;;;;;;4948409;28;20094;-64
2022/01/11 00:10:39;;;;;;;5.13;3.15;;;-1.80;99.90;;;;;;4950238;28;20019;-64
2022/01/11 00:13:04;;;;;;;9.45;3.80;;;-1.70;99.90;;;;;;4946351;28;20026;-64
2022/01/11 00:15:30;;;;;;;10.52;2.25;;;-1.60;99.90;;;;;;4949105;28;20031;-64
2022/01/11 00:17:59;;;;;;;4.70;2.55;;;-1.70;99.90;;;;;;4946404;28;20058;-64
2022/01/11 00:20:27;;;;;;;9.35;2.75;;;-1.70;99.90;;;;;;4948442;28;20023;-64
2022/01/11 00:25:25;;;;;;;6.60;2.90;;;-2.00;99.90;;;;;;4941078;28;20020;-64
2022/01/11 00:27:51;;;;;;;4.68;2.70;;;-2.00;99.90;;;;;;4945877;28;20055;-64
2022/01/11 00:30:17;;;;;;;10.75;2.70;;;-2.10;99.90;;;;;;4947841;28;20034;-64
2022/01/11 00:32:48;;;;;;;5.60;3.15;;;-2.00;99.90;;;;;;4946003;28;20034;-64
2022/01/11 00:35:16;;;;;;;5.20;2.47;;;-2.10;99.90;;;;;;4949667;28;20029;-64
2022/01/11 00:37:43;;;;;;;5.25;3.35;;;-2.20;99.90;;;;;;4948043;28;20166;-64
2022/01/11 00:40:09;;;;;;;5.82;3.05;;;-2.20;99.90;;;;;;4949972;28;20134;-64
2022/01/11 00:42:35;;;;;;;3.90;2.15;;;-2.30;99.90;;;;;;4951447;28;20012;-65
2022/01/11 00:45:04;;;;;;;3.65;2.05;;;-2.30;99.90;;;;;;4946929;28;20026;-64
2022/01/11 00:47:29;;;;;;;6.25;2.53;;;-1.90;99.90;;;;;;4947848;28;20497;-64
2022/01/11 00:49:55;;;;;;;4.53;2.35;;;-1.70;99.90;;;;;;4941924;28;20024;-64
2022/01/11 00:52:21;;;;;;;7.65;2.65;;;-1.60;99.90;;;;;;4950649;28;20038;-64
2022/01/11 00:54:47;;;;;;;13.93;4.10;;;-1.70;99.90;;;;;;4947881;28;20039;-64
2022/01/11 00:57:12;;;;;;;5.20;2.90;;;-1.50;99.90;;;;;;4946053;28;20468;-64
2022/01/11 00:59:38;;;;;;;6.35;2.42;;;-1.60;99.90;;;;;;4943356;28;20027;-64
2022/01/11 01:02:04;;;;;;;4.32;2.25;;;-1.60;99.90;;;;;;4944978;28;20031;-64
2022/01/11 01:04:30;;;;;;;8.52;3.05;;;-1.70;99.90;;;;;;4932230;28;20083;-64
2022/01/11 01:06:55;;;;;;;6.72;3.15;;;-1.90;99.90;;;;;;4945926;28;20024;-64
2022/01/11 01:09:23;;;;;;;9.57;3.03;;;-2.00;99.90;;;;;;4945950;28;20027;-64
2022/01/11 01:11:48;;;;;;;5.18;3.50;;;-2.20;99.90;;;;;;4950421;28;20039;-64
2022/01/11 01:14:16;;;;;;;4.75;2.67;;;-2.20;99.90;;;;;;4944845;29;20086;-64
2022/01/11 01:16:42;;;;;;;10.90;2.95;;;-2.20;99.90;;;;;;4944058;28;20027;-64
2022/01/11 01:19:08;;;;;;;3.25;1.83;;;-2.30;99.90;;;;;;4944563;29;20373;-64
2022/01/11 01:21:37;;;;;;;4.97;2.97;;;-2.30;99.90;;;;;;4949016;28;20027;-64
2022/01/11 01:24:06;;;;;;;2.25;1.70;;;-2.30;99.90;;;;;;4951444;28;20104;-64
2022/01/11 01:26:31;;;;;;;6.82;3.05;;;-2.00;99.90;;;;;;4944289;28;20583;-64
2022/01/11 01:28:59;;;;;;;4.32;2.13;;;-2.10;99.90;;;;;;4950366;28;20098;-64
2022/01/11 01:31:26;;;;;;;3.30;2.13;;;-2.00;99.90;;;;;;4927919;29;20031;-64
2022/01/11 01:33:52;;;;;;;2.95;2.03;;;-1.90;99.90;;;;;;4946647;28;20027;-64
2022/01/11 01:36:18;;;;;;;5.00;2.58;;;-1.90;99.90;;;;;;4949360;29;20085;-64
2022/01/11 01:38:44;;;;;;;3.80;1.73;;;-1.80;99.90;;;;;;4932493;29;20023;-64
2022/01/11 01:41:15;;;;;;;3.83;1.80;;;-1.80;99.90;;;;;;4949992;28;20380;-64
2022/01/11 01:43:42;;;;;;;6.95;3.40;;;-2.00;99.90;;;;;;4929072;28;20494;-64
2022/01/11 01:46:08;;;;;;;5.18;2.28;;;-1.50;99.90;;;;;;4954573;28;20092;-65
2022/01/11 01:48:35;;;;;;;3.35;2.22;;;-1.30;99.90;;;;;;4950509;28;20447;-64
2022/01/11 01:51:02;;;;;;;3.40;1.73;;;-1.10;99.90;;;;;;4951243;28;20031;-64
2022/01/11 01:53:28;;;;;;;12.65;3.15;;;-1.00;99.90;;;;;;4955004;28;20047;-64
2022/01/11 01:55:55;;;;;;;4.15;2.10;;;-1.00;99.90;;;;;;4951498;28;20031;-64
2022/01/11 01:58:21;;;;;;;2.38;1.45;;;-0.90;99.90;;;;;;4948245;28;20024;-64
2022/01/11 02:00:53;;;;;;;7.00;3.03;;;-1.00;99.90;;;;;;4943801;28;20074;-64
2022/01/11 02:03:26;;;;;;;12.68;2.03;;;-1.00;99.90;;;;;;4947845;28;20542;-64
2022/01/11 02:05:53;;;;;;;4.35;2.20;;;-1.00;99.90;;;;;;4949839;28;20027;-64
2022/01/11 02:08:20;;;;;;;1.08;0.93;;;-1.20;99.90;;;;;;4946347;28;20028;-64
2022/01/11 02:10:45;;;;;;;7.43;2.00;;;-1.20;99.90;;;;;;4951162;28;20031;-64
2022/01/11 02:13:11;;;;;;;3.50;1.75;;;-1.20;99.90;;;;;;4948333;29;20035;-64
2022/01/11 02:15:37;;;;;;;8.57;3.05;;;-1.20;99.90;;;;;;4948421;28;20115;-64
2022/01/11 02:18:11;;;;;;;5.25;2.55;;;-1.40;99.90;;;;;;4947219;28;20038;-64
2022/01/11 02:20:44;;;;;;;4.05;2.45;;;-1.50;99.90;;;;;;4945711;28;20036;-64
2022/01/11 02:23:10;;;;;;;11.60;2.97;;;-1.70;99.90;;;;;;4932841;29;20031;-64
2022/01/11 02:25:37;;;;;;;3.97;2.58;;;-1.80;99.90;;;;;;4947896;28;20020;-64
2022/01/11 02:28:04;;;;;;;3.50;1.58;;;-1.90;99.90;;;;;;4944617;28;20099;-64
2022/01/11 02:30:33;;;;;;;3.50;2.05;;;-1.90;99.90;;;;;;4952113;28;20048;-64
2022/01/11 02:33:01;;;;;;;5.15;2.45;;;-2.00;99.90;;;;;;4947157;28;20027;-64
2022/01/11 02:35:27;;;;;;;3.42;1.77;;;-1.80;99.90;;;;;;4950887;28;20023;-64
2022/01/11 02:37:53;;;;;;;4.93;2.42;;;-1.70;99.90;;;;;;4947550;28;20110;-64
2022/01/11 02:40:18;;;;;;;2.05;1.58;;;-1.60;99.90;;;;;;4951215;28;20039;-64
2022/01/11 02:42:44;;;;;;;11.40;2.17;;;-1.60;99.90;;;;;;4951955;28;20143;-64
2022/01/11 02:45:21;;;;;;;20.92;3.33;;;-1.70;99.90;;;;;;4947231;28;20122;-64
2022/01/11 02:47:48;;;;;;;3.67;1.83;;;-1.70;99.90;;;;;;4949633;28;20032;-64
2022/01/11 02:50:16;;;;;;;6.47;2.05;;;-1.70;99.90;;;;;;4948925;28;20062;-64
2022/01/11 02:52:42;;;;;;;4.05;2.22;;;-1.60;99.90;;;;;;4949752;28;20023;-64
2022/01/11 02:55:13;;;;;;;3.00;1.77;;;-1.50;99.90;;;;;;4946095;29;20504;-64
2022/01/11 02:57:39;;;;;;;6.78;3.85;;;-1.50;99.90;;;;;;4948713;28;20027;-64
2022/01/11 03:00:07;;;;;;;2.72;1.85;;;-1.60;99.90;;;;;;4949346;28;20027;-64
2022/01/11 03:02:33;;;;;;;3.92;2.20;;;-1.60;99.90;;;;;;4948199;28;20064;-64
2022/01/11 03:04:59;;;;;;;1.98;1.35;;;-1.60;99.90;;;;;;4951810;29;20055;-64
2022/01/11 03:07:24;;;;;;;3.97;2.35;;;-1.50;99.90;;;;;;4947226;28;20027;-64
2022/01/11 03:10:05;;;;;;;2.65;1.77;;;-1.50;99.90;;;;;;4949213;28;20039;-64
2022/01/11 03:12:32;;;;;;;4.75;2.78;;;-1.60;99.90;;;;;;4938339;28;20054;-64
2022/01/11 03:14:58;;;;;;;5.55;2.25;;;-1.60;99.90;;;;;;4946306;28;20030;-64
2022/01/11 03:17:25;;;;;;;3.88;2.05;;;-1.70;99.90;;;;;;4945537;28;20036;-64
2022/01/11 03:19:53;;;;;;;11.98;2.47;;;-1.80;99.90;;;;;;4947776;28;20031;-64
2022/01/11 03:22:19;;;;;;;3.25;1.15;;;-1.90;99.90;;;;;;4949925;28;20089;-64
2022/01/11 03:24:45;;;;;;;15.90;2.83;;;-2.00;99.90;;;;;;4945942;28;20027;-64
2022/01/11 03:27:11;;;;;;;2.67;2.13;;;-1.80;99.90;;;;;;4946655;29;20043;-64
2022/01/11 03:29:40;;;;;;;1.73;1.27;;;-1.80;99.90;;;;;;4946360;28;20020;-64
2022/01/11 03:32:07;;;;;;;1.73;1.33;;;-1.80;99.90;;;;;;4948565;28;20023;-64
2022/01/11 03:34:33;;;;;;;2.38;1.55;;;-1.50;99.90;;;;;;4947760;28;20114;-64
2022/01/11 03:36:59;;;;;;;2.45;2.00;;;-1.50;99.90;;;;;;4944997;28;20102;-64
2022/01/11 03:39:26;;;;;;;4.05;3.25;;;-1.20;99.90;;;;;;4944073;29;20052;-64
2022/01/11 03:41:51;;;;;;;4.60;1.83;;;-0.90;99.90;;;;;;4952565;28;20487;-64
2022/01/11 03:44:17;;;;;;;3.55;2.63;;;-0.70;99.90;;;;;;4947859;28;20058;-64
2022/01/11 03:46:43;;;;;;;4.15;2.67;;;-0.70;99.90;;;;;;4945864;28;20099;-64
2022/01/11 03:49:08;;;;;;;4.15;2.22;;;-0.80;99.90;;;;;;4942163;29;20484;-64
2022/01/11 03:51:38;;;;;;;2.72;1.48;;;-0.70;99.90;;;;;;4945965;28;20106;-64
2022/01/11 03:54:14;;;;;;;4.55;1.67;;;-0.60;99.90;;;;;;4946717;28;20043;-64
2022/01/11 03:56:39;;;;;;;8.05;2.28;;;-0.60;99.90;;;;;;4945263;28;20034;-64
2022/01/11 03:59:08;;;;;;;4.38;2.35;;;-0.70;99.90;;;;;;4944252;28;20476;-64
2022/01/11 04:01:35;;;;;;;3.10;2.13;;;-0.90;99.90;;;;;;4950408;28;20764;-65
2022/01/11 04:04:02;;;;;;;4.35;1.92;;;-1.10;99.90;;;;;;4937724;28;20056;-64
2022/01/11 04:06:28;;;;;;;1.98;1.38;;;-1.20;99.90;;;;;;4944113;28;20114;-64
2022/01/11 04:08:54;;;;;;;7.20;3.05;;;-1.20;99.90;;;;;;4929869;29;20110;-64
2022/01/11 04:11:20;;;;;;;3.28;1.80;;;-1.20;99.90;;;;;;4950415;28;20043;-64
2022/01/11 04:13:46;;;;;;;20.40;2.95;;;-1.30;99.90;;;;;;4943707;28;20042;-65
2022/01/11 04:16:12;;;;;;;4.68;2.38;;;-1.40;99.90;;;;;;4945914;28;20395;-64
2022/01/11 04:18:37;;;;;;;5.60;2.70;;;-1.50;99.90;;;;;;4949109;28;20591;-64
2022/01/11 04:21:03;;;;;;;4.15;1.73;;;-1.40;99.90;;;;;;4943953;28;20110;-64
2022/01/11 04:23:29;;;;;;;2.38;1.70;;;-1.40;99.90;;;;;;4935672;29;20175;-64
2022/01/11 04:25:55;;;;;;;3.70;1.50;;;-1.30;99.90;;;;;;4944404;28;20083;-64
2022/01/11 04:28:25;;;;;;;1.67;1.27;;;-1.30;99.90;;;;;;4946625;28;20045;-64
2022/01/11 04:30:52;;;;;;;5.00;2.47;;;-1.30;99.90;;;;;;4947816;28;20023;-64
2022/01/11 04:33:18;;;;;;;4.78;2.05;;;-1.10;99.90;;;;;;4945605;28;20098;-64
2022/01/11 04:35:44;;;;;;;2.13;1.50;;;-1.10;99.90;;;;;;4943685;28;20428;-64
2022/01/11 04:38:10;;;;;;;3.30;2.00;;;-1.20;99.90;;;;;;4932118;29;20028;-64
2022/01/11 04:40:36;;;;;;;11.52;4.72;;;-1.30;99.90;;;;;;4948647;28;20535;-64
2022/01/11 04:43:02;;;;;;;3.50;1.92;;;-1.20;99.90;;;;;;4942961;29;20119;-64
2022/01/11 04:45:28;;;;;;;2.47;1.58;;;-1.10;99.90;;;;;;4931522;29;20245;-64
2022/01/11 04:47:56;;;;;;;2.90;1.58;;;-1.20;99.90;;;;;;4945529;28;20753;-64
2022/01/11 04:50:26;;;;;;;5.65;2.47;;;-1.20;99.90;;;;;;4946462;28;20032;-64
2022/01/11 04:52:52;;;;;;;5.28;2.08;;;-1.20;99.90;;;;;;4933416;29;20023;-64
2022/01/11 04:55:18;;;;;;;6.78;1.88;;;-1.30;99.90;;;;;;4940088;28;20566;-64
2022/01/11 04:57:44;;;;;;;3.60;1.75;;;-1.10;99.90;;;;;;4946623;28;20034;-64
2022/01/11 05:00:10;;;;;;;3.42;2.20;;;-0.90;99.90;;;;;;4947508;28;20456;-64
2022/01/11 05:02:36;;;;;;;2.83;2.08;;;-0.90;99.90;;;;;;4945373;28;20027;-64
2022/01/11 05:05:03;;;;;;;3.63;1.15;;;-1.20;99.90;;;;;;4946023;29;20059;-64
2022/01/11 05:07:29;;;;;;;2.50;1.92;;;-1.10;99.90;;;;;;4946168;28;20028;-64
2022/01/11 05:09:55;;;;;;;4.68;2.60;;;-1.00;99.90;;;;;;4956770;28;20023;-64
2022/01/11 05:12:21;;;;;;;2.83;1.42;;;-0.80;99.90;;;;;;4924103;28;20030;-64
2022/01/11 05:14:46;;;;;;;3.05;1.42;;;-0.70;99.90;;;;;;4958081;28;20035;-65
2022/01/11 05:17:12;;;;;;;2.90;1.50;;;-0.80;99.90;;;;;;4959040;28;20032;-64
2022/01/11 05:19:37;;;;;;;2.22;1.40;;;-0.80;99.90;;;;;;4954561;28;20616;-64
2022/01/11 05:22:04;;;;;;;3.88;1.70;;;-0.80;99.90;;;;;;4950885;28;20034;-64
2022/01/11 05:24:29;;;;;;;3.33;2.03;;;-0.70;99.90;;;;;;4951335;28;20023;-64
2022/01/11 05:26:55;;;;;;;21.75;1.92;;;-1.10;99.90;;;;;;4948311;28;20043;-65
2022/01/11 05:29:21;;;;;;;5.05;1.73;;;-1.20;99.90;;;;;;4950617;28;20369;-64
2022/01/11 05:31:47;;;;;;;1.92;1.40;;;-1.10;99.90;;;;;;4949942;28;20030;-65
2022/01/11 05:34:12;;;;;;;3.85;1.95;;;-0.90;99.90;;;;;;4927270;28;20039;-65
2022/01/11 05:36:38;;;;;;;1.85;1.38;;;-0.80;99.90;;;;;;4954693;28;20065;-65
2022/01/11 05:39:04;;;;;;;5.03;2.38;;;-0.90;99.90;;;;;;4962327;28;20525;-65
2022/01/11 05:41:33;;;;;;;2.67;2.20;;;-0.80;99.90;;;;;;4951769;28;20110;-65
2022/01/11 05:43:59;;;;;;;1.92;1.33;;;-0.70;99.90;;;;;;4959105;28;20030;-64
2022/01/11 05:46:25;;;;;;;2.50;1.52;;;-0.60;99.90;;;;;;4960526;28;20034;-65
2022/01/11 05:48:50;;;;;;;9.68;3.33;;;-0.70;99.90;;;;;;4959497;28;20102;-65
2022/01/11 05:51:16;;;;;;;2.00;1.30;;;-0.70;99.90;;;;;;4953381;28;20031;-64
2022/01/11 05:53:43;;;;;;;2.85;1.65;;;-0.70;99.90;;;;;;4962110;28;20046;-65
2022/01/11 05:56:09;;;;;;;3.05;1.55;;;-0.70;99.90;;;;;;4958258;28;20398;-65
2022/01/11 05:58:34;;;;;;;2.80;2.08;;;-0.90;99.90;;;;;;4942125;28;20043;-66
2022/01/11 06:01:00;;;;;;;3.17;1.60;;;-0.90;99.90;;;;;;4947311;28;20042;-64
2022/01/11 06:03:26;;;;;;;2.80;1.40;;;-0.70;99.90;;;;;;4955615;28;20055;-65
2022/01/11 06:05:52;;;;;;;3.85;2.00;;;-0.80;99.90;;;;;;4950189;28;20050;-65
2022/01/11 06:08:18;;;;;;;1.92;1.20;;;-0.80;99.90;;;;;;4945429;28;20055;-65
2022/01/11 06:10:45;;;;;;;2.65;1.58;;;-0.90;99.90;;;;;;4952131;28;20035;-65
2022/01/11 06:13:11;;;;;;;2.13;1.25;;;-1.20;99.90;;;;;;4952394;28;20110;-65
2022/01/11 06:15:37;;;;;;;1.75;1.30;;;-1.20;99.90;;;;;;4946148;28;20422;-64
2022/01/11 06:18:06;;;;;;;3.50;1.85;;;-1.00;99.90;;;;;;4923105;29;20028;-65
2022/01/11 06:20:32;;;;;;;4.25;1.67;;;-0.80;99.90;;;;;;4953659;28;20051;-64
2022/01/11 06:22:58;;;;;;;1.20;1.10;;;-0.70;99.90;;;;;;4953053;28;20031;-64
2022/01/11 06:25:24;;;;;;;1.40;1.20;;;-0.90;99.90;;;;;;4938476;28;20116;-65
2022/01/11 06:27:49;;;;;;;1.58;1.15;;;-1.20;99.90;;;;;;4954780;28;20044;-65
2022/01/11 06:30:16;;;;;;;6.55;2.22;;;-1.30;99.90;;;;;;4952296;28;20545;-65
2022/01/11 06:32:44;;;;;;;5.82;2.85;;;-1.50;99.90;;;;;;4951519;28;20023;-65
2022/01/11 06:35:11;;;;;;;3.33;2.00;;;-1.40;99.90;;;;;;4945305;28;20023;-64
2022/01/11 06:37:37;;;;;;;3.25;1.88;;;-1.50;99.90;;;;;;4952875;28;20511;-64
2022/01/11 06:40:04;;;;;;;2.42;1.63;;;-1.20;99.90;;;;;;4944893;28;20055;-65
2022/01/11 06:42:31;;;;;;;2.53;1.67;;;-1.10;99.90;;;;;;4952129;28;20074;-64
2022/01/11 06:44:56;;;;;;;2.95;1.48;;;-0.90;99.90;;;;;;4946687;28;20023;-65
2022/01/11 06:47:22;;;;;;;2.50;1.23;;;-0.80;99.90;;;;;;4942725;28;20602;-64
2022/01/11 06:49:48;;;;;;;4.32;2.78;;;-0.90;99.90;;;;;;4940195;28;20027;-64
2022/01/11 06:52:14;;;;;;;2.20;1.65;;;-0.70;99.90;;;;;;4950710;28;20449;-64
2022/01/11 06:54:41;;;;;;;2.40;1.30;;;-0.60;99.90;;;;;;4935819;28;20094;-64
2022/01/11 06:57:07;;;;;;;4.60;2.03;;;-0.60;99.90;;;;;;4941416;28;20059;-64
2022/01/11 06:59:35;;;;;;;2.97;1.48;;;-0.60;99.90;;;;;;4951635;28;20031;-64
2022/01/11 07:02:01;;;;;;;1.67;1.17;;;-0.60;99.90;;;;;;4944543;28;20027;-64
2022/01/11 07:04:27;;;;;;;5.53;1.77;;;-0.60;99.90;;;;;;4943373;28;20032;-64
2022/01/11 07:06:53;;;;;;;3.95;2.25;;;-0.70;99.90;;;;;;4934609;28;20033;-64
2022/01/11 07:09:19;;;;;;;2.05;1.85;;;-0.80;99.90;;;;;;4946129;28;20074;-64
2022/01/11 07:11:44;;;;;;;3.00;1.42;;;-0.80;99.90;;;;;;4948063;28;20067;-64
2022/01/11 07:14:11;;;;;;;4.18;2.13;;;-0.80;99.90;;;;;;4940334;28;20654;-64
2022/01/11 07:16:37;;;;;;;3.25;1.70;;;-0.70;99.90;;;;;;4938824;28;20447;-64
2022/01/11 07:19:03;;;;;;;5.38;3.08;;;-0.70;99.90;;;;;;4945856;28;20099;-64
2022/01/11 07:21:28;;;;;;;3.60;2.30;;;-0.70;99.90;;;;;;4947000;28;20118;-65
2022/01/11 07:23:54;;;;;;;2.30;1.45;;;-0.60;99.90;;;;;;4947130;28;20115;-64
2022/01/11 07:26:20;;;;;;;8.60;2.85;;;-0.60;99.90;;;;;;4940125;28;20543;-63
2022/01/11 07:28:46;;;;;;;5.70;2.67;;;-0.60;99.90;;;;;;4946474;28;20083;-63
2022/01/11 07:31:12;;;;;;;2.40;1.55;;;-0.60;99.90;;;;;;4938251;28;20027;-64
2022/01/11 07:33:37;;;;;;;2.35;1.45;;;-0.60;99.90;;;;;;4932263;29;20070;-64
2022/01/11 07:36:04;;;;;;;3.80;1.55;;;-0.60;99.90;;;;;;4942925;28;20031;-64
2022/01/11 07:38:30;;;;;;;2.33;1.58;;;-0.60;99.90;;;;;;4946020;28;20027;-63
2022/01/11 07:40:55;;;;;;;4.18;2.45;;;-0.60;99.90;;;;;;4948149;28;20038;-64
2022/01/11 07:43:21;;;;;;;5.07;2.53;;;-0.60;99.90;;;;;;4926469;29;20511;-63
2022/01/11 07:45:47;;;;;;;8.98;2.67;;;-0.50;99.90;;;;;;4948846;28;20033;-64
2022/01/11 07:48:12;;;;;;;2.13;1.38;;;-0.40;99.90;;;;;;4946684;28;20027;-63
2022/01/11 07:50:38;;;;;;;3.20;1.92;;;-0.40;99.90;;;;;;4946712;28;20342;-63
2022/01/11 07:53:05;;;;;;;1.90;1.45;;;-0.40;99.90;;;;;;4947115;28;20031;-63
2022/01/11 07:55:32;;;;;;;2.33;1.45;;;-0.30;99.90;;;;;;4947639;28;20395;-64
2022/01/11 07:57:58;;;;;;;1.65;1.15;;;-0.30;99.90;;;;;;4948321;28;20023;-63
2022/01/11 08:00:23;;;;;;;1.10;1.00;;;-0.20;99.90;;;;;;4945090;28;20050;-63
2022/01/11 08:02:49;;;;;;;3.88;2.00;;;-0.20;99.90;;;;;;4953513;28;20027;-63
2022/01/11 08:05:16;;;;;;;9.32;2.47;;;-0.10;99.90;;;;;;4948549;28;20027;-63
2022/01/11 08:07:42;;;;;;;3.58;1.92;;;0.00;99.90;;;;;;4944875;28;20541;-64
2022/01/11 08:10:10;;;;;;;4.03;1.63;;;-0.10;99.90;;;;;;4945605;28;20019;-64
2022/01/11 08:12:36;;;;;;;1.63;1.27;;;0.00;99.90;;;;;;4948976;28;20069;-63
2022/01/11 08:15:02;;;;;;;4.40;2.60;;;0.00;99.90;;;;;;4950017;28;20479;-63
2022/01/11 08:17:28;;;;;;;4.10;2.45;;;0.10;99.90;;;;;;4929991;28;20656;-63
2022/01/11 08:19:54;;;;;;;6.97;1.67;;;0.10;99.90;;;;;;4947462;28;20031;-64
2022/01/11 08:22:20;;;;;;;2.15;1.55;;;0.00;99.90;;;;;;4941860;28;20035;-63
2022/01/11 08:24:46;;;;;;;2.42;1.40;;;0.10;99.90;;;;;;4948437;28;20023;-64
2022/01/11 08:27:12;;;;;;;2.20;1.70;;;0.20;99.90;;;;;;4946568;28;20105;-64
2022/01/11 08:29:39;;;;;;;3.83;1.70;;;0.20;99.90;;;;;;4950092;28;20026;-63
2022/01/11 08:32:06;;;;;;;1.98;1.42;;;0.30;99.90;;;;;;4946060;28;20067;-64
2022/01/11 08:34:32;;;;;;;4.82;2.67;;;0.30;99.90;;;;;;4946868;28;20030;-63
2022/01/11 08:36:59;;;;;;;7.60;2.92;;;0.40;99.90;;;;;;4943141;28;20292;-63
2022/01/11 08:39:25;;;;;;;2.15;1.33;;;0.50;99.90;;;;;;4948403;28;20499;-63
2022/01/11 08:41:51;;;;;;;1.05;0.90;;;0.60;99.90;;;;;;4953443;28;20110;-63
2022/01/11 08:44:20;;;;;;;1.23;1.13;;;0.70;99.90;;;;;;4949781;28;20107;-63
2022/01/11 08:46:46;;;;;;;2.70;1.83;;;0.80;99.90;;;;;;4947423;28;20508;-63
2022/01/11 08:49:13;;;;;;;2.00;1.48;;;0.80;99.90;;;;;;4942086;28;20044;-63
2022/01/11 08:51:39;;;;;;;5.68;2.65;;;0.90;99.90;;;;;;4947499;28;20544;-63
2022/01/11 08:54:05;;;;;;;3.08;1.98;;;0.90;99.90;;;;;;4946584;28;20086;-63
2022/01/11 08:56:32;;;;;;;6.78;2.55;;;0.90;99.90;;;;;;4943794;28;20035;-63
2022/01/11 08:58:58;;;;;;;3.80;2.05;;;1.00;99.90;;;;;;4951249;28;20094;-63
2022/01/11 09:01:26;;;;;;;2.13;1.40;;;1.10;99.90;;;;;;4948046;28;20074;-64
2022/01/11 09:03:52;;;;;;;4.57;2.10;;;1.30;99.90;;;;;;4944652;28;20042;-64
2022/01/11 09:06:18;;;;;;;5.88;2.25;;;1.80;99.90;;;;;;4944049;28;20023;-63
2022/01/11 09:08:44;;;;;;;8.95;2.97;;;2.30;99.90;;;;;;4952076;28;20027;-63
2022/01/11 09:11:10;;;;;;;2.75;1.48;;;2.60;99.90;;;;;;4939999;28;20518;-64
2022/01/11 09:13:37;;;;;;;4.20;1.63;;;3.10;99.90;;;;;;4947901;28;20034;-64
2022/01/11 09:16:04;;;;;;;1.13;0.95;;;3.60;99.90;;;;;;4944169;28;20023;-64
2022/01/11 09:18:30;;;;;;;2.92;1.38;;;4.10;99.90;;;;;;4949310;28;20023;-63
2022/01/11 09:21:00;;;;;;;4.50;2.05;;;4.20;99.90;;;;;;4944028;28;20041;-64
2022/01/11 09:23:29;;;;;;;3.55;1.50;;;4.70;99.90;;;;;;4943556;28;20035;-64
2022/01/11 09:25:55;;;;;;;5.13;2.38;;;4.80;99.90;;;;;;4945103;28;20058;-64
2022/01/11 09:28:21;;;;;;;2.83;1.48;;;5.00;99.90;;;;;;4947688;28;20052;-64
2022/01/11 09:30:47;;;;;;;3.90;2.30;;;5.50;99.90;;;;;;4948289;28;20039;-62
2022/01/11 09:33:13;;;;;;;5.82;2.38;;;5.70;99.90;;;;;;4947217;28;21429;-62
2022/01/11 09:35:39;;;;;;;5.13;1.52;;;6.10;99.90;;;;;;4946526;28;20090;-62
2022/01/11 09:38:05;;;;;;;5.57;2.95;;;6.20;99.90;;;;;;4945325;28;20028;-62
2022/01/11 09:40:31;;;;;;;6.70;1.75;;;6.60;99.90;;;;;;4943666;28;20538;-62
2022/01/11 09:42:56;;;;;;;4.28;1.67;;;6.90;99.90;;;;;;4945025;28;20028;-62
2022/01/11 09:45:22;;;;;;;3.65;1.73;;;7.10;99.90;;;;;;4941272;28;20034;-62
2022/01/11 09:47:48;;;;;;;6.15;1.83;;;7.10;99.90;;;;;;4947759;28;20040;-62
2022/01/11 09:50:15;;;;;;;2.45;1.33;;;7.10;99.90;;;;;;4944233;28;20114;-64
2022/01/11 09:52:41;;;;;;;1.58;0.90;;;6.80;99.90;;;;;;4946122;28;20043;-62
2022/01/11 09:55:10;;;;;;;1.50;1.15;;;7.20;99.90;;;;;;4943417;28;20023;-62
2022/01/11 09:57:37;;;;;;;8.23;2.33;;;7.00;99.90;;;;;;4952786;28;20023;-62
2022/01/11 10:00:06;;;;;;;4.88;1.67;;;7.20;99.90;;;;;;4950287;28;20038;-62
2022/01/11 10:02:32;;;;;;;5.85;1.80;;;7.20;99.90;;;;;;4947290;28;20046;-64
2022/01/11 10:05:01;;;;;;;2.92;1.60;;;7.40;99.90;;;;;;4948642;28;20020;-62
2022/01/11 10:07:32;;;;;;;4.75;2.25;;;7.30;99.90;;;;;;4945762;28;20051;-63
2022/01/11 10:09:58;;;;;;;3.60;1.50;;;7.60;99.90;;;;;;4949545;28;20031;-63
2022/01/11 10:12:24;;;;;;;5.43;1.83;;;8.30;99.90;;;;;;4947287;28;20038;-63
2022/01/11 10:14:55;;;;;;;4.80;1.92;;;8.60;99.90;;;;;;4952203;28;20042;-63
2022/01/11 10:17:21;;;;;;;7.13;2.28;;;8.60;99.90;;;;;;4946554;28;20027;-63
2022/01/11 10:20:14;;;;;;;7.35;2.05;;;8.90;99.90;;;;;;4945665;28;20167;-63
2022/01/11 10:22:56;;;;;;;9.82;2.90;;;9.70;99.90;;;;;;4940668;28;20067;-63
2022/01/11 10:25:24;;;;;;;4.18;1.77;;;10.20;99.90;;;;;;4945184;28;20026;-63
2022/01/11 10:28:01;;;;;;;8.25;2.58;;;10.30;99.90;;;;;;4947904;28;20455;-63
2022/01/11 10:30:28;;;;;;;2.58;1.00;;;10.50;99.90;;;;;;4948014;28;20086;-63
2022/01/11 10:32:56;;;;;;;5.78;2.10;;;10.70;99.90;;;;;;4955185;28;20026;-63
2022/01/11 10:35:26;;;;;;;6.25;1.92;;;10.10;99.90;;;;;;4959997;28;20023;-63
2022/01/11 10:37:54;;;;;;;4.70;1.77;;;9.60;99.90;;;;;;4950488;28;20058;-63
2022/01/11 10:40:34;;;;;;;6.28;1.90;;;9.60;99.90;;;;;;4959853;28;20019;-63
2022/01/11 10:43:04;;;;;;;6.18;2.05;;;9.50;99.90;;;;;;4948637;28;20054;-63
2022/01/11 10:45:35;;;;;;;4.22;1.88;;;9.80;99.90;;;;;;4960668;28;20484;-63
2022/01/11 10:48:13;;;;;;;4.88;2.13;;;10.70;99.90;;;;;;4938372;28;20024;-63
2022/01/11 10:50:48;;;;;;;4.40;1.77;;;11.50;99.90;;;;;;4959826;28;20038;-63
2022/01/11 10:53:19;;;;;;;4.88;1.73;;;11.50;99.90;;;;;;4952886;28;20023;-64
2022/01/11 10:56:04;;;;;;;9.18;2.42;;;11.80;99.90;;;;;;4953118;28;20658;-63
2022/01/11 10:58:33;;;;;;;4.10;1.55;;;12.40;99.90;;;;;;4953131;28;20031;-63
2022/01/11 11:00:59;;;;;;;5.65;1.98;;;13.30;99.60;;;;;;4944588;28;20027;-63
2022/01/11 11:03:26;;;;;;;5.07;1.80;;;13.20;98.70;;;;;;4942632;28;20024;-64
2022/01/11 11:06:00;;;;;;;4.40;1.55;;;12.70;99.90;;;;;;4945039;28;20038;-64
2022/01/11 11:08:33;;;;;;;7.20;2.15;;;12.70;99.90;;;;;;4950672;28;20022;-64
2022/01/11 11:11:07;;;;;;;4.47;1.83;;;12.50;99.90;;;;;;4945643;28;20650;-64
2022/01/11 11:13:42;;;;;;;7.63;2.08;;;12.10;99.90;;;;;;4949470;28;20494;-64
2022/01/11 11:16:10;;;;;;;7.18;2.03;;;12.40;99.90;;;;;;4948475;28;20105;-63
2022/01/11 11:18:47;;;;;;;6.95;2.20;;;12.90;99.90;;;;;;4944817;28;20027;-63
2022/01/11 11:21:14;;;;;;;7.20;2.58;;;12.80;99.80;;;;;;4947055;28;20027;-64
2022/01/11 11:23:40;;;;;;;6.65;1.98;;;13.40;98.90;;;;;;4947816;28;20154;-64
2022/01/11 11:26:06;;;;;;;6.85;2.28;;;13.30;99.90;;;;;;4949624;28;20534;-64
2022/01/11 11:28:31;;;;;;;13.85;3.15;;;14.30;96.20;;;;;;4952226;28;20047;-64
2022/01/11 11:30:58;;;;;;;6.47;2.10;;;14.10;97.70;;;;;;4947222;28;20047;-64
2022/01/11 11:33:25;;;;;;;5.18;1.85;;;12.70;99.40;;;;;;4945800;28;20035;-64
2022/01/11 11:35:51;;;;;;;8.48;2.10;;;12.50;99.90;;;;;;4943288;28;20488;-64
2022/01/11 11:38:19;;;;;;;8.77;2.58;;;13.40;99.70;;;;;;4946585;28;20424;-64
2022/01/11 11:40:51;;;;;;;5.90;1.95;;;14.20;98.80;;;;;;4949225;28;20452;-64
2022/01/11 11:43:17;;;;;;;7.10;1.77;;;13.70;97.10;;;;;;4944035;28;20019;-64
2022/01/11 11:45:44;;;;;;;7.00;1.90;;;14.60;95.00;;;;;;4944165;28;20047;-64
2022/01/11 11:48:15;;;;;;;6.53;2.20;;;14.70;94.40;;;;;;4947426;28;20027;-64
2022/01/11 11:50:58;;;;;;;5.50;1.80;;;14.80;93.50;;;;;;4927542;29;20031;-64
2022/01/11 11:53:34;;;;;;;7.82;1.92;;;14.90;93.20;;;;;;4946597;28;20028;-64
2022/01/11 11:56:25;;;;;;;4.35;1.70;;;14.80;92.50;;;;;;4945695;28;20027;-63
2022/01/11 11:58:56;;;;;;;5.85;2.17;;;13.50;93.30;;;;;;4949609;28;20061;-63
2022/01/11 12:01:28;;;;;;;3.22;1.30;;;13.50;93.80;;;;;;4944291;28;20395;-63
2022/01/11 12:03:54;;;;;;;4.13;1.70;;;13.60;93.80;;;;;;4945198;28;20383;-64
2022/01/11 12:06:27;;;;;;;5.72;1.90;;;13.50;94.50;;;;;;4941692;28;20019;-63
2022/01/11 12:09:03;;;;;;;4.47;1.52;;;13.60;94.50;;;;;;4944955;28;20127;-64
2022/01/11 12:11:35;;;;;;;7.38;1.88;;;14.30;93.50;;;;;;4940306;28;20438;-64
2022/01/11 12:14:01;;;;;;;3.60;1.40;;;13.80;93.90;;;;;;4946600;28;20027;-63
2022/01/11 12:16:28;;;;;;;7.30;1.90;;;13.50;93.40;;;;;;4938568;28;20050;-64
2022/01/11 12:18:57;;;;;;;5.43;1.83;;;13.40;93.80;;;;;;4945214;28;21504;-64
2022/01/11 12:21:24;;;;;;;5.20;1.43;;;13.60;93.50;;;;;;4945505;28;20023;-64
2022/01/11 12:23:55;;;;;;;5.22;1.83;;;13.50;93.60;;;;;;4944905;28;20034;-64
2022/01/11 12:26:25;;;;;;;3.28;1.05;;;13.40;93.30;;;;;;4939889;28;20026;-63
2022/01/11 12:29:08;;;;;;;;;;;13.40;93.50;;;;;;4947534;28;20469;-64
2022/01/11 12:31:50;;;;;;;3.50;1.60;;;13.50;93.20;;;;;;4947543;28;20390;-64
2022/01/11 12:34:16;;;;;;;6.68;2.20;;;14.00;92.00;;;;;;4949201;28;20632;-64
2022/01/11 12:36:52;;;;;;;3.75;1.70;;;14.30;91.40;;;;;;4930824;29;20126;-64
2022/01/11 12:39:18;;;;;;;5.97;1.92;;;14.30;91.20;;;;;;4946376;28;20034;-64
2022/01/11 12:41:43;;;;;;;2.85;1.10;;;13.90;91.70;;;;;;4945937;28;20055;-64
2022/01/11 12:47:05;;;;;;;2.55;1.00;;;13.80;91.50;;;;;;4950383;28;20031;-64
2022/01/11 12:49:32;;;;;;;5.90;1.50;;;14.00;92.00;;;;;;4945815;28;20042;-64
2022/01/11 12:52:09;;;;;;;4.05;1.27;;;13.50;91.20;;;;;;4948118;28;20078;-64
2022/01/11 12:54:40;;;;;;;4.80;1.50;;;13.20;91.50;;;;;;4926972;28;20486;-64